sensor_id;sensor_type;location;lat;lon;timestamp;P1;durP1;ratioP1;P2;durP2;ratioP2
21941;SDS011;11135;54.192;15.670;2023-05-02T00:02:37;6.35;;;3.45;;
21941;SDS011;11135;54.192;15.670;2023-05-02T00:05:43;7.57;;;3.63;;
21941;SDS011;11135;54.192;15.670;2023-05-02T00:08:48;8.27;;;4.25;;
21941;SDS011;11135;54.192;15.670;2023-05-02T00:11:56;7.25;;;3.53;;
21941;SDS011;11135;54.192;15.670;2023-05-02T00:15:02;6.93;;;4.00;;
21941;SDS011;11135;54.192;15.670;2023-05-02T00:18:07;6.07;;;3.67;;
21941;SDS011;11135;54.192;15.670;2023-05-02T00:21:16;7.82;;;3.75;;
21941;SDS011;11135;54.192;15.670;2023-05-02T00:24:21;6.00;;;3.58;;
21941;SDS011;11135;54.192;15.670;2023-05-02T00:27:31;6.65;;;3.55;;
21941;SDS011;11135;54.192;15.670;2023-05-02T00:30:36;7.25;;;3.22;;
21941;SDS011;11135;54.192;15.670;2023-05-02T00:33:41;6.20;;;3.42;;
21941;SDS011;11135;54.192;15.670;2023-05-02T00:36:46;7.22;;;3.55;;
21941;SDS011;11135;54.192;15.670;2023-05-02T00:39:52;8.00;;;4.47;;
21941;SDS011;11135;54.192;15.670;2023-05-02T00:43:00;6.07;;;3.72;;
21941;SDS011;11135;54.192;15.670;2023-05-02T00:46:05;7.65;;;3.70;;
21941;SDS011;11135;54.192;15.670;2023-05-02T00:49:13;7.65;;;3.92;;
21941;SDS011;11135;54.192;15.670;2023-05-02T00:52:18;7.88;;;4.22;;
21941;SDS011;11135;54.192;15.670;2023-05-02T00:55:28;10.05;;;4.20;;
21941;SDS011;11135;54.192;15.670;2023-05-02T00:58:37;11.30;;;3.80;;
21941;SDS011;11135;54.192;15.670;2023-05-02T01:01:47;6.68;;;3.92;;
21941;SDS011;11135;54.192;15.670;2023-05-02T01:04:59;8.20;;;4.15;;
21941;SDS011;11135;54.192;15.670;2023-05-02T01:08:07;8.68;;;3.88;;
21941;SDS011;11135;54.192;15.670;2023-05-02T01:11:16;8.50;;;3.75;;
21941;SDS011;11135;54.192;15.670;2023-05-02T01:14:25;5.45;;;3.53;;
21941;SDS011;11135;54.192;15.670;2023-05-02T01:17:33;7.47;;;4.35;;
21941;SDS011;11135;54.192;15.670;2023-05-02T01:20:41;8.77;;;4.47;;
21941;SDS011;11135;54.192;15.670;2023-05-02T01:23:51;8.23;;;4.43;;
21941;SDS011;11135;54.192;15.670;2023-05-02T01:27:05;10.63;;;4.55;;
21941;SDS011;11135;54.192;15.670;2023-05-02T01:30:14;7.35;;;3.90;;
21941;SDS011;11135;54.192;15.670;2023-05-02T01:33:22;7.57;;;4.63;;
21941;SDS011;11135;54.192;15.670;2023-05-02T01:36:29;8.50;;;4.30;;
21941;SDS011;11135;54.192;15.670;2023-05-02T01:39:35;8.18;;;4.03;;
21941;SDS011;11135;54.192;15.670;2023-05-02T01:42:42;7.10;;;3.80;;
21941;SDS011;11135;54.192;15.670;2023-05-02T01:45:50;9.73;;;5.30;;
21941;SDS011;11135;54.192;15.670;2023-05-02T01:49:00;8.77;;;4.63;;
21941;SDS011;11135;54.192;15.670;2023-05-02T01:52:06;6.88;;;4.05;;
21941;SDS011;11135;54.192;15.670;2023-05-02T01:55:21;8.68;;;4.57;;
21941;SDS011;11135;54.192;15.670;2023-05-02T01:58:28;6.70;;;3.88;;
21941;SDS011;11135;54.192;15.670;2023-05-02T02:01:38;7.05;;;4.20;;
21941;SDS011;11135;54.192;15.670;2023-05-02T02:04:44;8.32;;;4.10;;
21941;SDS011;11135;54.192;15.670;2023-05-02T02:07:51;8.82;;;4.40;;
21941;SDS011;11135;54.192;15.670;2023-05-02T02:10:58;8.15;;;4.28;;
21941;SDS011;11135;54.192;15.670;2023-05-02T02:14:06;7.80;;;4.28;;
21941;SDS011;11135;54.192;15.670;2023-05-02T02:17:21;8.15;;;4.30;;
21941;SDS011;11135;54.192;15.670;2023-05-02T02:20:30;7.22;;;4.22;;
21941;SDS011;11135;54.192;15.670;2023-05-02T02:23:36;7.75;;;4.30;;
21941;SDS011;11135;54.192;15.670;2023-05-02T02:26:47;7.40;;;4.30;;
21941;SDS011;11135;54.192;15.670;2023-05-02T02:29:53;9.35;;;4.35;;
21941;SDS011;11135;54.192;15.670;2023-05-02T02:33:01;9.57;;;4.68;;
21941;SDS011;11135;54.192;15.670;2023-05-02T02:36:07;6.65;;;3.92;;
21941;SDS011;11135;54.192;15.670;2023-05-02T02:39:18;8.68;;;4.15;;
21941;SDS011;11135;54.192;15.670;2023-05-02T02:42:28;8.57;;;4.45;;
21941;SDS011;11135;54.192;15.670;2023-05-02T02:45:37;8.35;;;4.22;;
21941;SDS011;11135;54.192;15.670;2023-05-02T02:48:52;7.75;;;4.28;;
21941;SDS011;11135;54.192;15.670;2023-05-02T02:52:01;6.75;;;3.97;;
21941;SDS011;11135;54.192;15.670;2023-05-02T02:55:10;7.97;;;4.28;;
21941;SDS011;11135;54.192;15.670;2023-05-02T02:58:29;7.43;;;4.32;;
21941;SDS011;11135;54.192;15.670;2023-05-02T03:01:37;9.88;;;4.03;;
21941;SDS011;11135;54.192;15.670;2023-05-02T03:04:49;8.15;;;4.70;;
21941;SDS011;11135;54.192;15.670;2023-05-02T03:07:55;11.00;;;5.22;;
21941;SDS011;11135;54.192;15.670;2023-05-02T03:11:03;8.18;;;4.78;;
21941;SDS011;11135;54.192;15.670;2023-05-02T03:14:10;8.77;;;4.43;;
21941;SDS011;11135;54.192;15.670;2023-05-02T03:17:18;7.53;;;4.72;;
21941;SDS011;11135;54.192;15.670;2023-05-02T03:20:29;7.47;;;4.15;;
21941;SDS011;11135;54.192;15.670;2023-05-02T03:23:34;7.20;;;4.22;;
21941;SDS011;11135;54.192;15.670;2023-05-02T03:26:42;8.23;;;4.10;;
21941;SDS011;11135;54.192;15.670;2023-05-02T03:29:49;8.02;;;4.65;;
21941;SDS011;11135;54.192;15.670;2023-05-02T03:32:54;10.32;;;5.70;;
21941;SDS011;11135;54.192;15.670;2023-05-02T03:36:05;9.48;;;4.43;;
21941;SDS011;11135;54.192;15.670;2023-05-02T03:39:10;8.30;;;4.38;;
21941;SDS011;11135;54.192;15.670;2023-05-02T03:42:17;8.10;;;5.03;;
21941;SDS011;11135;54.192;15.670;2023-05-02T03:45:22;6.55;;;3.88;;
21941;SDS011;11135;54.192;15.670;2023-05-02T03:48:28;7.50;;;4.35;;
21941;SDS011;11135;54.192;15.670;2023-05-02T03:51:38;9.07;;;3.78;;
21941;SDS011;11135;54.192;15.670;2023-05-02T03:54:45;6.95;;;4.00;;
21941;SDS011;11135;54.192;15.670;2023-05-02T03:57:50;5.85;;;3.65;;
21941;SDS011;11135;54.192;15.670;2023-05-02T04:01:07;9.05;;;4.03;;
21941;SDS011;11135;54.192;15.670;2023-05-02T04:04:22;7.55;;;4.00;;
21941;SDS011;11135;54.192;15.670;2023-05-02T04:07:31;7.78;;;4.32;;
21941;SDS011;11135;54.192;15.670;2023-05-02T04:10:39;9.07;;;4.75;;
21941;SDS011;11135;54.192;15.670;2023-05-02T04:13:46;10.95;;;5.00;;
21941;SDS011;11135;54.192;15.670;2023-05-02T04:16:54;8.07;;;4.60;;
21941;SDS011;11135;54.192;15.670;2023-05-02T04:20:01;6.72;;;4.05;;
21941;SDS011;11135;54.192;15.670;2023-05-02T04:23:11;8.30;;;4.43;;
21941;SDS011;11135;54.192;15.670;2023-05-02T04:26:18;9.57;;;4.65;;
21941;SDS011;11135;54.192;15.670;2023-05-02T04:29:23;8.55;;;4.53;;
21941;SDS011;11135;54.192;15.670;2023-05-02T04:32:28;6.80;;;4.13;;
21941;SDS011;11135;54.192;15.670;2023-05-02T04:35:34;8.63;;;4.75;;
21941;SDS011;11135;54.192;15.670;2023-05-02T04:38:46;14.15;;;5.97;;
21941;SDS011;11135;54.192;15.670;2023-05-02T04:41:51;10.15;;;4.97;;
21941;SDS011;11135;54.192;15.670;2023-05-02T04:44:56;8.25;;;4.70;;
21941;SDS011;11135;54.192;15.670;2023-05-02T04:48:03;9.25;;;5.47;;
21941;SDS011;11135;54.192;15.670;2023-05-02T04:51:10;12.57;;;5.55;;
21941;SDS011;11135;54.192;15.670;2023-05-02T04:54:20;9.05;;;5.43;;
21941;SDS011;11135;54.192;15.670;2023-05-02T04:57:25;9.40;;;5.80;;
21941;SDS011;11135;54.192;15.670;2023-05-02T05:00:31;11.75;;;5.72;;
21941;SDS011;11135;54.192;15.670;2023-05-02T05:03:38;12.65;;;5.88;;
21941;SDS011;11135;54.192;15.670;2023-05-02T05:06:51;7.60;;;4.57;;
21941;SDS011;11135;54.192;15.670;2023-05-02T05:10:02;13.45;;;6.90;;
21941;SDS011;11135;54.192;15.670;2023-05-02T05:13:13;9.50;;;4.85;;
21941;SDS011;11135;54.192;15.670;2023-05-02T05:16:18;10.10;;;5.75;;
21941;SDS011;11135;54.192;15.670;2023-05-02T05:19:23;12.68;;;5.95;;
21941;SDS011;11135;54.192;15.670;2023-05-02T05:22:36;11.60;;;6.50;;
21941;SDS011;11135;54.192;15.670;2023-05-02T05:25:44;11.85;;;6.28;;
21941;SDS011;11135;54.192;15.670;2023-05-02T05:28:50;10.30;;;6.75;;
21941;SDS011;11135;54.192;15.670;2023-05-02T05:31:55;10.80;;;6.88;;
21941;SDS011;11135;54.192;15.670;2023-05-02T05:35:02;15.05;;;8.52;;
21941;SDS011;11135;54.192;15.670;2023-05-02T05:38:08;15.23;;;8.18;;
21941;SDS011;11135;54.192;15.670;2023-05-02T05:41:16;17.27;;;8.10;;
21941;SDS011;11135;54.192;15.670;2023-05-02T05:44:22;13.25;;;7.80;;
21941;SDS011;11135;54.192;15.670;2023-05-02T05:47:27;13.65;;;8.00;;
21941;SDS011;11135;54.192;15.670;2023-05-02T05:50:37;15.65;;;8.50;;
21941;SDS011;11135;54.192;15.670;2023-05-02T05:53:44;17.08;;;8.35;;
21941;SDS011;11135;54.192;15.670;2023-05-02T05:56:53;17.20;;;10.07;;
21941;SDS011;11135;54.192;15.670;2023-05-02T06:00:00;16.00;;;8.93;;
21941;SDS011;11135;54.192;15.670;2023-05-02T06:03:07;17.10;;;10.52;;
21941;SDS011;11135;54.192;15.670;2023-05-02T06:06:16;18.85;;;10.20;;
21941;SDS011;11135;54.192;15.670;2023-05-02T06:09:21;15.63;;;9.23;;
21941;SDS011;11135;54.192;15.670;2023-05-02T06:12:29;18.67;;;9.18;;
21941;SDS011;11135;54.192;15.670;2023-05-02T06:15:36;15.52;;;9.95;;
21941;SDS011;11135;54.192;15.670;2023-05-02T06:18:42;19.85;;;11.00;;
21941;SDS011;11135;54.192;15.670;2023-05-02T06:21:47;18.77;;;10.45;;
21941;SDS011;11135;54.192;15.670;2023-05-02T06:24:54;17.35;;;9.77;;
21941;SDS011;11135;54.192;15.670;2023-05-02T06:28:01;15.35;;;9.40;;
21941;SDS011;11135;54.192;15.670;2023-05-02T06:31:07;16.55;;;10.13;;
21941;SDS011;11135;54.192;15.670;2023-05-02T06:34:13;17.35;;;10.10;;
21941;SDS011;11135;54.192;15.670;2023-05-02T06:37:19;20.13;;;11.43;;
21941;SDS011;11135;54.192;15.670;2023-05-02T06:40:24;19.45;;;10.85;;
21941;SDS011;11135;54.192;15.670;2023-05-02T06:43:34;19.98;;;9.63;;
21941;SDS011;11135;54.192;15.670;2023-05-02T06:46:41;21.15;;;11.43;;
21941;SDS011;11135;54.192;15.670;2023-05-02T06:49:47;18.50;;;10.13;;
21941;SDS011;11135;54.192;15.670;2023-05-02T06:52:54;19.30;;;10.75;;
21941;SDS011;11135;54.192;15.670;2023-05-02T06:56:03;18.27;;;10.18;;
21941;SDS011;11135;54.192;15.670;2023-05-02T06:59:10;20.98;;;12.98;;
21941;SDS011;11135;54.192;15.670;2023-05-02T07:02:20;23.70;;;12.68;;
21941;SDS011;11135;54.192;15.670;2023-05-02T07:05:25;18.88;;;9.88;;
21941;SDS011;11135;54.192;15.670;2023-05-02T07:08:31;23.23;;;12.15;;
21941;SDS011;11135;54.192;15.670;2023-05-02T07:11:36;21.25;;;12.13;;
21941;SDS011;11135;54.192;15.670;2023-05-02T07:14:45;21.95;;;14.07;;
21941;SDS011;11135;54.192;15.670;2023-05-02T07:17:50;18.13;;;11.40;;
21941;SDS011;11135;54.192;15.670;2023-05-02T07:20:57;23.27;;;13.38;;
21941;SDS011;11135;54.192;15.670;2023-05-02T07:24:02;28.00;;;14.80;;
21941;SDS011;11135;54.192;15.670;2023-05-02T07:27:09;28.52;;;13.88;;
21941;SDS011;11135;54.192;15.670;2023-05-02T07:30:18;28.98;;;15.30;;
21941;SDS011;11135;54.192;15.670;2023-05-02T07:33:23;31.88;;;16.00;;
21941;SDS011;11135;54.192;15.670;2023-05-02T07:36:29;29.15;;;15.15;;
21941;SDS011;11135;54.192;15.670;2023-05-02T07:39:36;29.38;;;16.10;;
21941;SDS011;11135;54.192;15.670;2023-05-02T07:42:42;32.17;;;17.05;;
21941;SDS011;11135;54.192;15.670;2023-05-02T07:45:55;32.05;;;14.30;;
21941;SDS011;11135;54.192;15.670;2023-05-02T07:49:01;30.83;;;15.35;;
21941;SDS011;11135;54.192;15.670;2023-05-02T07:52:07;30.98;;;13.20;;
21941;SDS011;11135;54.192;15.670;2023-05-02T07:55:14;28.23;;;12.55;;
21941;SDS011;11135;54.192;15.670;2023-05-02T07:58:22;24.23;;;12.63;;
21941;SDS011;11135;54.192;15.670;2023-05-02T08:01:33;21.30;;;10.15;;
21941;SDS011;11135;54.192;15.670;2023-05-02T08:04:53;18.63;;;8.48;;
21941;SDS011;11135;54.192;15.670;2023-05-02T08:07:58;20.85;;;8.68;;
21941;SDS011;11135;54.192;15.670;2023-05-02T08:11:10;14.73;;;8.23;;
21941;SDS011;11135;54.192;15.670;2023-05-02T08:14:15;16.48;;;7.22;;
21941;SDS011;11135;54.192;15.670;2023-05-02T08:17:26;17.08;;;7.28;;
21941;SDS011;11135;54.192;15.670;2023-05-02T08:20:33;16.67;;;6.33;;
21941;SDS011;11135;54.192;15.670;2023-05-02T08:23:40;21.25;;;7.55;;
21941;SDS011;11135;54.192;15.670;2023-05-02T08:26:47;17.65;;;7.82;;
21941;SDS011;11135;54.192;15.670;2023-05-02T08:29:55;16.55;;;6.18;;
21941;SDS011;11135;54.192;15.670;2023-05-02T08:33:06;18.08;;;4.63;;
21941;SDS011;11135;54.192;15.670;2023-05-02T08:36:12;15.75;;;5.60;;
21941;SDS011;11135;54.192;15.670;2023-05-02T08:39:18;14.65;;;4.75;;
21941;SDS011;11135;54.192;15.670;2023-05-02T08:42:23;14.98;;;4.35;;
21941;SDS011;11135;54.192;15.670;2023-05-02T08:45:33;15.93;;;4.65;;
21941;SDS011;11135;54.192;15.670;2023-05-02T08:48:46;19.77;;;6.63;;
21941;SDS011;11135;54.192;15.670;2023-05-02T08:51:54;13.07;;;4.38;;
21941;SDS011;11135;54.192;15.670;2023-05-02T08:55:01;13.30;;;4.90;;
21941;SDS011;11135;54.192;15.670;2023-05-02T08:58:07;18.35;;;5.57;;
21941;SDS011;11135;54.192;15.670;2023-05-02T09:01:18;10.55;;;3.58;;
21941;SDS011;11135;54.192;15.670;2023-05-02T09:04:27;18.30;;;5.32;;
21941;SDS011;11135;54.192;15.670;2023-05-02T09:10:40;17.77;;;4.05;;
21941;SDS011;11135;54.192;15.670;2023-05-02T09:13:47;12.60;;;4.15;;
21941;SDS011;11135;54.192;15.670;2023-05-02T09:16:57;9.27;;;3.83;;
21941;SDS011;11135;54.192;15.670;2023-05-02T09:20:06;11.90;;;4.55;;
21941;SDS011;11135;54.192;15.670;2023-05-02T09:23:14;10.60;;;4.67;;
21941;SDS011;11135;54.192;15.670;2023-05-02T09:26:20;14.57;;;5.13;;
21941;SDS011;11135;54.192;15.670;2023-05-02T09:29:30;10.18;;;4.18;;
21941;SDS011;11135;54.192;15.670;2023-05-02T09:32:43;12.18;;;3.90;;
21941;SDS011;11135;54.192;15.670;2023-05-02T09:35:55;15.35;;;3.95;;
21941;SDS011;11135;54.192;15.670;2023-05-02T09:39:07;10.40;;;3.50;;
21941;SDS011;11135;54.192;15.670;2023-05-02T09:42:12;12.60;;;3.83;;
21941;SDS011;11135;54.192;15.670;2023-05-02T09:45:34;10.90;;;3.10;;
21941;SDS011;11135;54.192;15.670;2023-05-02T09:48:51;9.40;;;3.30;;
21941;SDS011;11135;54.192;15.670;2023-05-02T09:52:08;13.85;;;3.55;;
21941;SDS011;11135;54.192;15.670;2023-05-02T09:55:19;10.60;;;3.92;;
21941;SDS011;11135;54.192;15.670;2023-05-02T09:58:25;9.38;;;3.05;;
21941;SDS011;11135;54.192;15.670;2023-05-02T10:01:31;7.45;;;3.33;;
21941;SDS011;11135;54.192;15.670;2023-05-02T10:04:37;18.20;;;3.40;;
21941;SDS011;11135;54.192;15.670;2023-05-02T10:07:45;6.18;;;2.85;;
21941;SDS011;11135;54.192;15.670;2023-05-02T10:10:52;7.45;;;3.08;;
21941;SDS011;11135;54.192;15.670;2023-05-02T10:13:57;8.52;;;3.35;;
21941;SDS011;11135;54.192;15.670;2023-05-02T10:17:08;9.73;;;3.15;;
21941;SDS011;11135;54.192;15.670;2023-05-02T10:20:18;8.38;;;3.35;;
21941;SDS011;11135;54.192;15.670;2023-05-02T10:23:34;5.95;;;2.35;;
21941;SDS011;11135;54.192;15.670;2023-05-02T10:26:39;9.30;;;3.63;;
21941;SDS011;11135;54.192;15.670;2023-05-02T10:29:45;6.80;;;2.97;;
21941;SDS011;11135;54.192;15.670;2023-05-02T10:32:51;10.52;;;3.60;;
21941;SDS011;11135;54.192;15.670;2023-05-02T10:35:57;4.45;;;2.50;;
21941;SDS011;11135;54.192;15.670;2023-05-02T10:39:04;7.40;;;2.55;;
21941;SDS011;11135;54.192;15.670;2023-05-02T10:42:13;9.32;;;3.03;;
21941;SDS011;11135;54.192;15.670;2023-05-02T10:45:29;8.27;;;3.20;;
21941;SDS011;11135;54.192;15.670;2023-05-02T10:48:35;9.05;;;3.17;;
21941;SDS011;11135;54.192;15.670;2023-05-02T10:51:41;10.02;;;3.33;;
21941;SDS011;11135;54.192;15.670;2023-05-02T10:54:49;7.60;;;2.70;;
21941;SDS011;11135;54.192;15.670;2023-05-02T11:11:39;5.32;;;2.65;;
21941;SDS011;11135;54.192;15.670;2023-05-02T11:14:48;13.25;;;3.95;;
21941;SDS011;11135;54.192;15.670;2023-05-02T11:17:58;10.00;;;3.30;;
21941;SDS011;11135;54.192;15.670;2023-05-02T11:21:23;10.85;;;2.70;;
21941;SDS011;11135;54.192;15.670;2023-05-02T11:24:40;9.32;;;3.50;;
21941;SDS011;11135;54.192;15.670;2023-05-02T11:27:48;11.32;;;3.72;;
21941;SDS011;11135;54.192;15.670;2023-05-02T11:30:56;12.68;;;2.85;;
21941;SDS011;11135;54.192;15.670;2023-05-02T11:34:02;6.68;;;2.58;;
21941;SDS011;11135;54.192;15.670;2023-05-02T11:37:13;11.07;;;2.80;;
21941;SDS011;11135;54.192;15.670;2023-05-02T11:40:22;7.45;;;2.53;;
21941;SDS011;11135;54.192;15.670;2023-05-02T11:43:30;11.00;;;3.28;;
21941;SDS011;11135;54.192;15.670;2023-05-02T11:46:36;7.53;;;2.90;;
21941;SDS011;11135;54.192;15.670;2023-05-02T11:49:42;9.02;;;3.10;;
21941;SDS011;11135;54.192;15.670;2023-05-02T11:52:47;11.43;;;3.00;;
21941;SDS011;11135;54.192;15.670;2023-05-02T11:55:55;7.40;;;2.65;;
21941;SDS011;11135;54.192;15.670;2023-05-02T11:59:04;9.20;;;2.95;;
21941;SDS011;11135;54.192;15.670;2023-05-02T12:02:09;7.70;;;2.83;;
21941;SDS011;11135;54.192;15.670;2023-05-02T12:05:26;10.00;;;2.83;;
21941;SDS011;11135;54.192;15.670;2023-05-02T12:08:32;7.93;;;3.28;;
21941;SDS011;11135;54.192;15.670;2023-05-02T12:11:38;8.55;;;2.80;;
21941;SDS011;11135;54.192;15.670;2023-05-02T12:14:46;10.18;;;2.63;;
21941;SDS011;11135;54.192;15.670;2023-05-02T12:17:53;8.45;;;2.50;;
21941;SDS011;11135;54.192;15.670;2023-05-02T12:20:59;10.15;;;3.45;;
21941;SDS011;11135;54.192;15.670;2023-05-02T12:24:16;8.68;;;3.10;;
21941;SDS011;11135;54.192;15.670;2023-05-02T12:27:22;8.05;;;2.75;;
21941;SDS011;11135;54.192;15.670;2023-05-02T12:30:31;9.82;;;3.20;;
21941;SDS011;11135;54.192;15.670;2023-05-02T12:33:43;7.95;;;3.05;;
21941;SDS011;11135;54.192;15.670;2023-05-02T12:36:49;5.13;;;2.78;;
21941;SDS011;11135;54.192;15.670;2023-05-02T12:39:55;7.80;;;2.75;;
21941;SDS011;11135;54.192;15.670;2023-05-02T12:43:02;6.75;;;2.53;;
21941;SDS011;11135;54.192;15.670;2023-05-02T12:46:20;8.18;;;3.70;;
21941;SDS011;11135;54.192;15.670;2023-05-02T12:49:32;8.63;;;2.67;;
21941;SDS011;11135;54.192;15.670;2023-05-02T12:52:47;8.02;;;3.33;;
21941;SDS011;11135;54.192;15.670;2023-05-02T12:56:02;6.43;;;2.70;;
21941;SDS011;11135;54.192;15.670;2023-05-02T12:59:08;7.38;;;3.33;;
21941;SDS011;11135;54.192;15.670;2023-05-02T13:02:18;9.10;;;2.60;;
21941;SDS011;11135;54.192;15.670;2023-05-02T13:05:32;7.05;;;2.65;;
21941;SDS011;11135;54.192;15.670;2023-05-02T13:08:57;8.25;;;2.78;;
21941;SDS011;11135;54.192;15.670;2023-05-02T13:12:11;7.68;;;2.38;;
21941;SDS011;11135;54.192;15.670;2023-05-02T13:15:18;9.48;;;2.88;;
21941;SDS011;11135;54.192;15.670;2023-05-02T13:18:27;9.15;;;2.47;;
21941;SDS011;11135;54.192;15.670;2023-05-02T13:21:32;10.18;;;3.38;;
21941;SDS011;11135;54.192;15.670;2023-05-02T13:24:40;6.47;;;2.53;;
21941;SDS011;11135;54.192;15.670;2023-05-02T13:27:47;10.35;;;2.58;;
21941;SDS011;11135;54.192;15.670;2023-05-02T13:30:53;7.03;;;2.50;;
21941;SDS011;11135;54.192;15.670;2023-05-02T13:34:03;8.13;;;2.55;;
21941;SDS011;11135;54.192;15.670;2023-05-02T13:37:09;7.25;;;2.83;;
21941;SDS011;11135;54.192;15.670;2023-05-02T13:40:14;6.50;;;2.85;;
21941;SDS011;11135;54.192;15.670;2023-05-02T13:43:21;8.02;;;3.42;;
21941;SDS011;11135;54.192;15.670;2023-05-02T13:46:27;9.07;;;3.08;;
21941;SDS011;11135;54.192;15.670;2023-05-02T13:49:40;8.43;;;2.58;;
21941;SDS011;11135;54.192;15.670;2023-05-02T13:52:47;8.32;;;2.55;;
21941;SDS011;11135;54.192;15.670;2023-05-02T13:56:01;7.03;;;3.03;;
21941;SDS011;11135;54.192;15.670;2023-05-02T13:59:07;6.65;;;2.70;;
21941;SDS011;11135;54.192;15.670;2023-05-02T14:02:20;7.95;;;2.13;;
21941;SDS011;11135;54.192;15.670;2023-05-02T14:05:29;6.25;;;2.35;;
21941;SDS011;11135;54.192;15.670;2023-05-02T14:08:34;5.90;;;2.33;;
21941;SDS011;11135;54.192;15.670;2023-05-02T14:11:41;9.38;;;2.80;;
21941;SDS011;11135;54.192;15.670;2023-05-02T14:14:50;7.95;;;2.72;;
21941;SDS011;11135;54.192;15.670;2023-05-02T14:17:57;7.63;;;2.97;;
21941;SDS011;11135;54.192;15.670;2023-05-02T14:21:06;6.82;;;2.60;;
21941;SDS011;11135;54.192;15.670;2023-05-02T14:24:11;6.60;;;2.75;;
21941;SDS011;11135;54.192;15.670;2023-05-02T14:27:18;7.38;;;3.47;;
21941;SDS011;11135;54.192;15.670;2023-05-02T14:30:24;9.07;;;3.45;;
21941;SDS011;11135;54.192;15.670;2023-05-02T14:33:30;12.43;;;3.10;;
21941;SDS011;11135;54.192;15.670;2023-05-02T14:36:39;6.20;;;2.35;;
21941;SDS011;11135;54.192;15.670;2023-05-02T14:39:48;8.80;;;3.05;;
21941;SDS011;11135;54.192;15.670;2023-05-02T14:42:55;9.20;;;3.20;;
21941;SDS011;11135;54.192;15.670;2023-05-02T14:46:01;9.60;;;3.08;;
21941;SDS011;11135;54.192;15.670;2023-05-02T14:49:06;7.35;;;2.50;;
21941;SDS011;11135;54.192;15.670;2023-05-02T14:52:16;6.40;;;2.85;;
21941;SDS011;11135;54.192;15.670;2023-05-02T14:55:21;5.45;;;2.40;;
21941;SDS011;11135;54.192;15.670;2023-05-02T14:58:28;6.72;;;2.70;;
21941;SDS011;11135;54.192;15.670;2023-05-02T15:01:34;6.38;;;2.38;;
21941;SDS011;11135;54.192;15.670;2023-05-02T15:04:43;6.55;;;2.30;;
21941;SDS011;11135;54.192;15.670;2023-05-02T15:07:51;6.20;;;2.13;;
21941;SDS011;11135;54.192;15.670;2023-05-02T15:11:02;6.97;;;2.63;;
21941;SDS011;11135;54.192;15.670;2023-05-02T15:14:10;6.22;;;2.60;;
21941;SDS011;11135;54.192;15.670;2023-05-02T15:17:19;6.38;;;2.10;;
21941;SDS011;11135;54.192;15.670;2023-05-02T15:20:29;5.95;;;2.67;;
21941;SDS011;11135;54.192;15.670;2023-05-02T15:23:41;8.98;;;2.72;;
21941;SDS011;11135;54.192;15.670;2023-05-02T15:26:47;7.82;;;2.45;;
21941;SDS011;11135;54.192;15.670;2023-05-02T15:30:04;6.13;;;2.20;;
21941;SDS011;11135;54.192;15.670;2023-05-02T15:33:10;8.02;;;2.53;;
21941;SDS011;11135;54.192;15.670;2023-05-02T15:36:16;6.50;;;2.75;;
21941;SDS011;11135;54.192;15.670;2023-05-02T15:39:24;8.48;;;2.63;;
21941;SDS011;11135;54.192;15.670;2023-05-02T15:42:33;5.72;;;1.95;;
21941;SDS011;11135;54.192;15.670;2023-05-02T15:45:49;6.18;;;2.65;;
21941;SDS011;11135;54.192;15.670;2023-05-02T15:49:03;7.00;;;2.77;;
21941;SDS011;11135;54.192;15.670;2023-05-02T15:52:09;5.20;;;2.28;;
21941;SDS011;11135;54.192;15.670;2023-05-02T15:55:20;8.52;;;2.85;;
21941;SDS011;11135;54.192;15.670;2023-05-02T15:58:27;6.70;;;2.47;;
21941;SDS011;11135;54.192;15.670;2023-05-02T16:01:32;8.90;;;2.67;;
21941;SDS011;11135;54.192;15.670;2023-05-02T16:04:38;8.93;;;3.72;;
21941;SDS011;11135;54.192;15.670;2023-05-02T16:07:44;6.00;;;2.45;;
21941;SDS011;11135;54.192;15.670;2023-05-02T16:10:53;8.57;;;2.90;;
21941;SDS011;11135;54.192;15.670;2023-05-02T16:14:02;6.70;;;2.50;;
21941;SDS011;11135;54.192;15.670;2023-05-02T16:17:08;9.35;;;3.00;;
21941;SDS011;11135;54.192;15.670;2023-05-02T16:20:15;8.65;;;2.70;;
21941;SDS011;11135;54.192;15.670;2023-05-02T16:23:24;5.45;;;2.40;;
21941;SDS011;11135;54.192;15.670;2023-05-02T16:26:34;7.68;;;2.58;;
21941;SDS011;11135;54.192;15.670;2023-05-02T16:29:43;6.80;;;1.83;;
21941;SDS011;11135;54.192;15.670;2023-05-02T16:32:50;6.45;;;2.10;;
21941;SDS011;11135;54.192;15.670;2023-05-02T16:35:59;5.78;;;2.67;;
21941;SDS011;11135;54.192;15.670;2023-05-02T16:39:08;7.60;;;2.22;;
21941;SDS011;11135;54.192;15.670;2023-05-02T16:42:19;5.97;;;2.10;;
21941;SDS011;11135;54.192;15.670;2023-05-02T16:45:35;4.40;;;1.90;;
21941;SDS011;11135;54.192;15.670;2023-05-02T16:48:41;8.70;;;2.50;;
21941;SDS011;11135;54.192;15.670;2023-05-02T16:51:47;5.53;;;2.58;;
21941;SDS011;11135;54.192;15.670;2023-05-02T16:54:54;5.60;;;2.65;;
21941;SDS011;11135;54.192;15.670;2023-05-02T16:58:02;6.57;;;2.60;;
21941;SDS011;11135;54.192;15.670;2023-05-02T17:01:08;6.95;;;2.55;;
21941;SDS011;11135;54.192;15.670;2023-05-02T17:04:14;7.57;;;2.53;;
21941;SDS011;11135;54.192;15.670;2023-05-02T17:07:22;7.95;;;2.75;;
21941;SDS011;11135;54.192;15.670;2023-05-02T17:10:29;9.40;;;3.17;;
21941;SDS011;11135;54.192;15.670;2023-05-02T17:13:40;4.43;;;2.53;;
21941;SDS011;11135;54.192;15.670;2023-05-02T17:16:48;8.20;;;2.70;;
21941;SDS011;11135;54.192;15.670;2023-05-02T17:19:54;7.70;;;2.65;;
21941;SDS011;11135;54.192;15.670;2023-05-02T17:23:03;6.28;;;2.65;;
21941;SDS011;11135;54.192;15.670;2023-05-02T17:26:12;6.60;;;3.05;;
21941;SDS011;11135;54.192;15.670;2023-05-02T17:29:22;6.57;;;2.33;;
21941;SDS011;11135;54.192;15.670;2023-05-02T17:32:27;6.15;;;2.72;;
21941;SDS011;11135;54.192;15.670;2023-05-02T17:35:35;6.00;;;2.67;;
21941;SDS011;11135;54.192;15.670;2023-05-02T17:38:43;9.02;;;2.80;;
21941;SDS011;11135;54.192;15.670;2023-05-02T17:41:51;7.75;;;3.33;;
21941;SDS011;11135;54.192;15.670;2023-05-02T17:44:59;7.50;;;2.78;;
21941;SDS011;11135;54.192;15.670;2023-05-02T17:48:08;7.63;;;3.07;;
21941;SDS011;11135;54.192;15.670;2023-05-02T17:51:13;7.80;;;2.58;;
21941;SDS011;11135;54.192;15.670;2023-05-02T17:54:19;5.43;;;2.50;;
21941;SDS011;11135;54.192;15.670;2023-05-02T17:57:25;7.63;;;2.45;;
21941;SDS011;11135;54.192;15.670;2023-05-02T18:00:35;9.50;;;2.72;;
21941;SDS011;11135;54.192;15.670;2023-05-02T18:03:41;6.32;;;2.78;;
21941;SDS011;11135;54.192;15.670;2023-05-02T18:06:49;6.70;;;2.67;;
21941;SDS011;11135;54.192;15.670;2023-05-02T18:09:54;9.00;;;2.92;;
21941;SDS011;11135;54.192;15.670;2023-05-02T18:13:03;7.40;;;3.17;;
21941;SDS011;11135;54.192;15.670;2023-05-02T18:16:12;7.90;;;3.00;;
21941;SDS011;11135;54.192;15.670;2023-05-02T18:19:20;7.20;;;2.60;;
21941;SDS011;11135;54.192;15.670;2023-05-02T18:22:25;6.78;;;2.75;;
21941;SDS011;11135;54.192;15.670;2023-05-02T18:25:36;9.95;;;3.85;;
21941;SDS011;11135;54.192;15.670;2023-05-02T18:28:44;8.85;;;2.47;;
21941;SDS011;11135;54.192;15.670;2023-05-02T18:31:57;11.93;;;3.28;;
21941;SDS011;11135;54.192;15.670;2023-05-02T18:35:06;8.35;;;3.25;;
21941;SDS011;11135;54.192;15.670;2023-05-02T18:38:20;7.72;;;3.20;;
21941;SDS011;11135;54.192;15.670;2023-05-02T18:41:25;5.70;;;2.67;;
21941;SDS011;11135;54.192;15.670;2023-05-02T18:44:32;8.10;;;3.15;;
21941;SDS011;11135;54.192;15.670;2023-05-02T18:47:42;11.90;;;4.07;;